LFBD/BOD METAR and TAF weather

Enter ICAO airport designator
Station Type Date Time Source
LFBD METAR 2022/12/05 14:00 UTC NOAA

LFBD 051400Z AUTO 08009KT 050V110 CAVOK 11/03 Q1016 NOSIG


Station Type Date Time Source
LFBD Decoded METAR 2022/12/05 14:00 UTC NOAA

Bordeaux / Merignac, France (LFBD) 44-50N 000-42W 61M
Dec 05, 2022 - 09:00 AM EST / 2022.12.05 1400 UTC
Wind: from the E (080 degrees) at 10 MPH (9 KT) (direction variable):0
Visibility: greater than 7 mile(s):0
Temperature: 51 F (11 C)
Dew Point: 37 F (3 C)
Relative Humidity: 57%
Pressure (altimeter): 30.00 in. Hg (1016 hPa)
ob: LFBD 051400Z AUTO 08009KT 050V110 CAVOK 11/03 Q1016 NOSIG
cycle: 14

Station Type Date Time Source
LFBD TAF 2022/12/05 12:53 UTC NOAA

TAF LFBD 051100Z 0512/0618 09007KT CAVOK TX11/0614Z TNM00/0604Z

Example: see airport list